createdAt,value
2018-06-20T00:01:03.542Z,5.70
2018-06-20T00:03:32.228Z,5.27
2018-06-20T00:06:00.912Z,6.03
2018-06-20T00:08:29.693Z,4.93
2018-06-20T00:10:58.553Z,5.50
2018-06-20T00:13:27.281Z,5.77
2018-06-20T00:15:56.006Z,5.70
2018-06-20T00:18:24.704Z,5.23
2018-06-20T00:20:53.280Z,5.97
2018-06-20T00:23:21.867Z,5.87
2018-06-20T00:25:50.449Z,5.67
2018-06-20T00:28:19.316Z,5.40
2018-06-20T00:30:47.829Z,5.33
2018-06-20T00:33:16.401Z,6.27
2018-06-20T00:35:44.991Z,5.90
2018-06-20T00:38:13.544Z,6.00
2018-06-20T00:40:42.156Z,5.63
2018-06-20T00:43:10.696Z,6.73
2018-06-20T00:45:39.314Z,6.50
2018-06-20T00:48:07.810Z,6.10
2018-06-20T00:50:36.522Z,6.00
2018-06-20T00:53:05.083Z,6.17
2018-06-20T00:55:44.489Z,7.20
2018-06-20T00:58:12.987Z,7.13
2018-06-20T01:00:41.598Z,6.80
2018-06-20T01:03:10.419Z,7.60
2018-06-20T01:05:38.936Z,6.83
2018-06-20T01:08:07.471Z,7.17
2018-06-20T01:10:36.162Z,7.00
2018-06-20T01:13:04.694Z,6.53
2018-06-20T01:15:33.301Z,6.30
2018-06-20T01:18:01.811Z,6.13
2018-06-20T01:20:30.351Z,7.27
2018-06-20T01:22:58.812Z,8.07
2018-06-20T01:25:27.396Z,8.00
2018-06-20T01:27:55.956Z,7.60
2018-06-20T01:30:24.550Z,7.80
2018-06-20T01:32:53.034Z,6.70
2018-06-20T01:35:21.515Z,7.23
2018-06-20T01:37:50.142Z,8.03
2018-06-20T01:40:18.761Z,7.97
2018-06-20T01:42:47.334Z,7.30
2018-06-20T01:45:15.945Z,7.33
2018-06-20T01:47:44.417Z,7.13
2018-06-20T01:50:12.930Z,7.57
2018-06-20T01:52:41.446Z,7.53
2018-06-20T01:55:10.017Z,7.70
2018-06-20T01:57:38.508Z,7.13
2018-06-20T02:00:07.082Z,7.10
2018-06-20T02:02:35.582Z,7.23
2018-06-20T02:05:04.154Z,8.00
2018-06-20T02:07:32.720Z,8.30
2018-06-20T02:10:01.215Z,8.13
2018-06-20T02:12:29.724Z,7.60
2018-06-20T02:14:58.250Z,8.73
2018-06-20T02:17:26.771Z,8.47
2018-06-20T02:19:55.270Z,8.23
2018-06-20T02:22:23.815Z,7.30
2018-06-20T02:24:52.403Z,7.20
2018-06-20T02:27:21.006Z,7.03
2018-06-20T02:29:49.529Z,7.53
2018-06-20T02:32:18.189Z,8.40
2018-06-20T02:34:46.796Z,9.13
2018-06-20T02:37:15.320Z,9.73
2018-06-20T02:39:43.946Z,9.40
2018-06-20T02:42:12.506Z,8.80
2018-06-20T02:44:41.074Z,10.00
2018-06-20T02:47:09.699Z,9.00
2018-06-20T02:49:38.578Z,10.23
2018-06-20T02:52:07.240Z,9.50
2018-06-20T02:54:35.777Z,9.37
2018-06-20T02:57:04.322Z,9.30
2018-06-20T02:59:32.871Z,8.90
2018-06-20T03:02:01.453Z,8.80
2018-06-20T03:04:30.118Z,9.07
2018-06-20T03:06:58.677Z,9.27
2018-06-20T03:09:32.294Z,8.80
2018-06-20T03:12:01.732Z,8.67
2018-06-20T03:14:30.470Z,8.90
2018-06-20T03:16:59.430Z,8.77
2018-06-20T03:19:29.321Z,9.27
2018-06-20T03:21:58.147Z,8.67
2018-06-20T03:24:26.601Z,8.90
2018-06-20T03:26:55.126Z,8.87
2018-06-20T03:29:23.656Z,8.90
2018-06-20T03:31:52.193Z,7.93
2018-06-20T03:34:20.866Z,8.83
2018-06-20T03:36:49.377Z,8.87
2018-06-20T03:39:17.826Z,9.03
2018-06-20T03:41:47.227Z,8.50
2018-06-20T03:44:15.724Z,8.93
2018-06-20T03:46:44.239Z,8.43
2018-06-20T03:49:12.754Z,9.83
2018-06-20T03:51:41.275Z,9.00
2018-06-20T03:54:09.756Z,8.77
2018-06-20T03:56:38.603Z,8.23
2018-06-20T03:59:07.093Z,8.63
2018-06-20T04:01:35.665Z,8.50
2018-06-20T04:04:04.113Z,8.00
2018-06-20T04:06:32.532Z,7.70
2018-06-20T04:09:01.047Z,7.83
2018-06-20T04:11:29.550Z,8.30
2018-06-20T04:13:58.069Z,9.00
2018-06-20T04:16:26.611Z,7.27
2018-06-20T04:18:55.105Z,8.33
2018-06-20T04:21:23.601Z,7.93
2018-06-20T04:23:52.065Z,9.00
2018-06-20T04:26:20.553Z,8.53
2018-06-20T04:28:49.072Z,9.07
2018-06-20T04:31:17.579Z,9.40
2018-06-20T04:33:46.170Z,8.93
2018-06-20T04:36:14.688Z,9.13
2018-06-20T04:38:43.185Z,8.70
2018-06-20T04:41:11.672Z,8.57
2018-06-20T04:43:40.202Z,8.60
2018-06-20T04:46:08.635Z,8.37
2018-06-20T04:48:37.243Z,8.97
2018-06-20T04:51:05.718Z,9.03
2018-06-20T04:53:34.238Z,8.60
2018-06-20T04:56:02.737Z,9.60
2018-06-20T04:58:31.230Z,9.10
2018-06-20T05:00:59.974Z,9.17
2018-06-20T05:03:28.528Z,8.60
2018-06-20T05:05:57.057Z,8.47
2018-06-20T05:08:25.519Z,8.80
2018-06-20T05:10:54.028Z,8.33
2018-06-20T05:13:22.568Z,8.63
2018-06-20T05:15:51.177Z,8.90
2018-06-20T05:18:19.710Z,8.33
2018-06-20T05:20:48.224Z,8.47
2018-06-20T05:23:16.718Z,8.13
2018-06-20T05:25:46.101Z,7.77
2018-06-20T05:28:14.656Z,7.83
2018-06-20T05:30:47.971Z,8.70
2018-06-20T05:33:17.429Z,8.37
2018-06-20T05:35:45.965Z,8.20
2018-06-20T05:38:16.040Z,8.33
2018-06-20T05:40:44.812Z,10.20
2018-06-20T05:43:14.008Z,9.03
2018-06-20T05:45:42.488Z,8.20
2018-06-20T05:48:11.086Z,7.97
2018-06-20T05:50:39.580Z,8.27
2018-06-20T05:53:08.155Z,8.10
2018-06-20T05:55:36.582Z,8.17
2018-06-20T05:58:05.457Z,8.10
2018-06-20T06:00:34.041Z,7.93
2018-06-20T06:03:02.666Z,8.20
2018-06-20T06:05:31.408Z,8.53
2018-06-20T06:08:05.318Z,9.50
2018-06-20T06:10:34.056Z,8.40
2018-06-20T06:13:02.666Z,7.70
2018-06-20T06:15:31.261Z,9.07
2018-06-20T06:17:59.843Z,9.07
2018-06-20T06:20:28.578Z,10.27
2018-06-20T06:22:57.169Z,11.73
2018-06-20T06:25:25.696Z,11.40
2018-06-20T06:27:54.326Z,10.13
2018-06-20T06:30:22.842Z,10.60
2018-06-20T06:32:51.318Z,10.37
2018-06-20T06:35:19.818Z,11.33
2018-06-20T06:37:48.387Z,9.70
2018-06-20T06:40:17.007Z,9.57
2018-06-20T06:42:45.592Z,8.83
2018-06-20T06:45:14.183Z,9.13
2018-06-20T06:47:42.764Z,9.30
2018-06-20T06:50:11.353Z,9.30
2018-06-20T06:52:39.869Z,9.63
2018-06-20T06:55:08.939Z,9.70
2018-06-20T06:57:37.514Z,9.67
2018-06-20T07:00:06.768Z,9.37
2018-06-20T07:02:35.814Z,8.80
2018-06-20T07:05:04.604Z,9.63
2018-06-20T07:07:33.514Z,8.53
2018-06-20T07:10:02.345Z,8.30
2018-06-20T07:12:31.445Z,8.33
2018-06-20T07:15:00.400Z,8.40
2018-06-20T07:17:30.172Z,8.23
2018-06-20T07:19:59.263Z,7.93
2018-06-20T07:22:29.291Z,7.57
2018-06-20T07:24:57.971Z,8.53
2018-06-20T07:27:26.511Z,10.60
2018-06-20T07:29:55.096Z,8.63
2018-06-20T07:32:23.735Z,8.60
2018-06-20T07:34:52.490Z,9.40
2018-06-20T07:37:21.357Z,7.57
2018-06-20T07:39:50.052Z,8.03
2018-06-20T07:42:18.629Z,8.33
2018-06-20T07:44:47.175Z,7.80
2018-06-20T07:47:15.760Z,7.20
2018-06-20T07:49:44.283Z,7.67
2018-06-20T07:52:13.073Z,8.30
2018-06-20T07:54:41.667Z,6.57
2018-06-20T07:57:10.545Z,6.87
2018-06-20T07:59:44.194Z,6.73
2018-06-20T08:02:29.110Z,5.67
2018-06-20T08:05:02.707Z,6.10
2018-06-20T08:07:36.691Z,5.70
2018-06-20T08:10:10.503Z,4.50
2018-06-20T08:12:44.106Z,4.70
2018-06-20T08:15:17.613Z,4.70
2018-06-20T08:17:51.267Z,4.92
2018-06-20T08:20:22.223Z,4.28
2018-06-20T08:22:50.808Z,4.28
2018-06-20T08:25:19.886Z,3.77
2018-06-20T08:27:48.887Z,4.22
2018-06-20T08:30:18.086Z,4.20
2018-06-20T08:38:51.710Z,3.90
2018-06-20T08:41:20.305Z,3.95
2018-06-20T08:43:49.126Z,3.92
2018-06-20T08:46:17.930Z,4.12
2018-06-20T08:48:46.709Z,3.80
2018-06-20T08:51:15.351Z,5.00
2018-06-20T08:53:44.270Z,5.87
2018-06-20T08:56:13.311Z,5.30
2018-06-20T08:58:42.217Z,4.92
2018-06-20T09:01:15.032Z,5.03
2018-06-20T09:03:44.606Z,5.08
2018-06-20T09:06:19.102Z,6.37
2018-06-20T09:08:53.123Z,5.20
2018-06-20T09:13:27.834Z,5.42
2018-06-20T09:16:01.574Z,5.22
2018-06-20T09:18:35.319Z,5.50
2018-06-20T09:21:03.905Z,5.70
2018-06-20T09:23:32.505Z,6.10
2018-06-20T09:26:01.089Z,6.03
2018-06-20T09:28:29.762Z,5.60
2018-06-20T09:30:58.511Z,6.08
2018-06-20T09:33:27.166Z,6.15
2018-06-20T09:35:55.890Z,5.92
2018-06-20T09:38:24.604Z,5.90
2018-06-20T09:40:53.228Z,5.75
2018-06-20T09:43:21.725Z,6.47
2018-06-20T09:45:56.763Z,6.08
2018-06-20T09:48:25.389Z,5.72
2018-06-20T09:50:56.675Z,5.67
2018-06-20T09:53:25.594Z,5.30
2018-06-20T09:55:54.635Z,5.50
2018-06-20T09:58:23.190Z,5.45
2018-06-20T10:00:57.059Z,4.75
2018-06-20T10:03:30.950Z,4.55
2018-06-20T10:06:04.734Z,5.42
2018-06-20T10:08:38.603Z,4.50
2018-06-20T10:11:12.598Z,4.47
2018-06-20T10:13:44.247Z,4.87
2018-06-20T10:16:13.013Z,4.70
2018-06-20T10:18:41.641Z,4.47
2018-06-20T10:21:10.501Z,4.53
2018-06-20T10:23:39.462Z,5.05
2018-06-20T10:26:08.048Z,4.95
2018-06-20T10:28:36.621Z,4.50
2018-06-20T10:31:05.299Z,5.03
2018-06-20T10:33:35.228Z,4.85
2018-06-20T10:36:03.888Z,4.22
2018-06-20T10:38:32.325Z,4.87
2018-06-20T10:41:01.377Z,4.37
2018-06-20T10:43:30.288Z,4.15
2018-06-20T10:46:04.282Z,4.40
2018-06-20T10:48:33.088Z,4.22
2018-06-20T10:51:01.747Z,3.45
2018-06-20T10:53:30.468Z,4.40
2018-06-20T10:55:59.131Z,4.35
2018-06-20T10:58:32.957Z,3.80
2018-06-20T11:01:07.571Z,4.62
2018-06-20T11:03:41.553Z,3.80
2018-06-20T11:06:15.473Z,3.95
2018-06-20T11:08:49.251Z,3.83
2018-06-20T11:11:23.260Z,3.67
2018-06-20T11:13:52.039Z,4.28
2018-06-20T11:16:20.650Z,3.70
2018-06-20T11:18:52.276Z,3.67
2018-06-20T11:21:24.845Z,3.67
2018-06-20T11:23:53.599Z,3.22
2018-06-20T11:26:22.229Z,3.87
2018-06-20T11:28:50.818Z,3.60
2018-06-20T11:31:19.541Z,3.70
2018-06-20T11:33:48.562Z,3.62
2018-06-20T11:36:17.585Z,3.12
2018-06-20T11:38:46.175Z,3.08
2018-06-20T11:41:15.113Z,3.52
2018-06-20T11:43:43.995Z,3.17
2018-06-20T11:46:18.111Z,3.75
2018-06-20T11:48:46.605Z,3.85
2018-06-20T11:51:15.156Z,3.30
2018-06-20T11:53:43.791Z,3.20
2018-06-20T11:56:12.496Z,3.35
2018-06-20T11:58:46.280Z,5.10
2018-06-20T12:01:20.227Z,3.60
2018-06-20T12:03:54.145Z,3.60
2018-06-20T12:06:27.970Z,3.40
2018-06-20T12:09:01.553Z,3.60
2018-06-20T12:11:35.309Z,3.17
2018-06-20T12:14:08.985Z,3.30
2018-06-20T12:16:38.170Z,3.62
2018-06-20T12:19:11.798Z,3.47
2018-06-20T12:21:45.483Z,3.72
2018-06-20T12:24:19.167Z,3.17
2018-06-20T12:26:52.828Z,3.67
2018-06-20T12:29:26.690Z,3.00
2018-06-20T12:32:00.606Z,2.83
2018-06-20T12:34:34.434Z,3.20
2018-06-20T12:37:07.992Z,3.27
2018-06-20T12:39:35.620Z,3.05
2018-06-20T12:42:09.525Z,3.77
2018-06-20T12:44:57.842Z,3.98
2018-06-20T12:47:29.970Z,3.87
2018-06-20T12:50:00.806Z,2.65
2018-06-20T12:52:29.489Z,2.70
2018-06-20T12:54:58.074Z,3.15
2018-06-20T12:57:26.753Z,2.67
2018-06-20T12:59:55.260Z,2.92
2018-06-20T13:02:23.752Z,2.90
2018-06-20T13:04:52.481Z,3.17
2018-06-20T13:07:21.194Z,2.67
2018-06-20T13:09:49.638Z,2.65
2018-06-20T13:12:19.198Z,2.83
2018-06-20T13:14:47.728Z,2.80
2018-06-20T13:17:16.254Z,2.10
2018-06-20T13:19:44.818Z,2.77
2018-06-20T13:22:13.735Z,2.90
2018-06-20T13:24:42.180Z,2.58
2018-06-20T13:27:15.244Z,2.83
2018-06-20T13:29:44.078Z,2.25
2018-06-20T13:32:17.842Z,2.33
2018-06-20T13:34:51.501Z,2.30
2018-06-20T13:37:25.196Z,2.40
2018-06-20T13:39:58.932Z,2.43
2018-06-20T13:42:32.710Z,1.93
2018-06-20T13:45:06.568Z,1.67
2018-06-20T13:47:40.309Z,1.70
2018-06-20T13:50:08.926Z,2.10
2018-06-20T13:52:37.466Z,2.10
2018-06-20T13:55:06.203Z,2.10
2018-06-20T13:57:34.651Z,2.23
2018-06-20T14:00:03.281Z,2.00
2018-06-20T14:02:31.865Z,1.80
2018-06-20T14:05:00.768Z,2.17
2018-06-20T14:07:29.622Z,1.93
2018-06-20T14:09:58.139Z,1.50
2018-06-20T14:12:26.928Z,2.17
2018-06-20T14:14:55.839Z,2.10
2018-06-20T14:17:24.457Z,2.90
2018-06-20T14:19:58.262Z,2.87
2018-06-20T14:22:27.145Z,2.00
2018-06-20T14:24:55.613Z,1.60
2018-06-20T14:27:24.496Z,1.63
2018-06-20T14:29:53.156Z,1.90
2018-06-20T14:32:27.075Z,1.83
2018-06-20T14:35:00.928Z,2.10
2018-06-20T14:37:34.612Z,1.90
2018-06-20T14:40:08.379Z,1.80
2018-06-20T14:42:42.391Z,2.43
2018-06-20T14:45:16.088Z,1.90
2018-06-20T14:47:44.647Z,1.80
2018-06-20T14:50:13.150Z,2.20
2018-06-20T14:52:41.842Z,2.07
2018-06-20T14:55:10.535Z,1.90
2018-06-20T14:57:39.069Z,2.53
2018-06-20T15:00:07.917Z,1.90
2018-06-20T15:02:36.666Z,1.80
2018-06-20T15:05:05.234Z,1.90
2018-06-20T15:07:33.806Z,1.97
2018-06-20T15:10:02.415Z,1.63
2018-06-20T15:12:31.022Z,2.07
2018-06-20T15:14:59.556Z,2.20
2018-06-20T15:17:29.322Z,1.53
2018-06-20T15:19:58.137Z,1.57
2018-06-20T15:22:26.904Z,2.00
2018-06-20T15:24:55.441Z,2.60
2018-06-20T15:29:30.045Z,1.97
2018-06-20T15:32:03.697Z,1.90
2018-06-20T15:34:37.436Z,2.10
2018-06-20T15:37:10.999Z,1.80
2018-06-20T15:39:39.575Z,1.67
2018-06-20T15:42:08.127Z,1.47
2018-06-20T15:44:36.721Z,2.23
2018-06-20T15:47:05.293Z,1.70
2018-06-20T15:49:34.038Z,1.70
2018-06-20T15:52:02.561Z,1.40
2018-06-20T15:54:31.101Z,1.57
2018-06-20T15:56:59.636Z,1.20
2018-06-20T15:59:28.527Z,1.40
2018-06-20T16:01:57.117Z,1.27
2018-06-20T16:04:25.672Z,1.80
2018-06-20T16:06:54.188Z,2.17
2018-06-20T16:09:27.984Z,1.50
2018-06-20T16:11:57.617Z,2.13
2018-06-20T16:14:26.143Z,1.90
2018-06-20T16:16:54.710Z,1.30
2018-06-20T16:19:28.444Z,2.10
2018-06-20T16:24:08.093Z,1.67
2018-06-20T16:26:41.773Z,1.43
2018-06-20T16:31:20.504Z,1.50
2018-06-20T16:33:48.988Z,1.60
2018-06-20T16:36:17.511Z,1.40
2018-06-20T16:38:46.012Z,1.33
2018-06-20T16:41:14.523Z,1.93
2018-06-20T16:43:43.009Z,2.70
2018-06-20T16:46:11.492Z,2.00
2018-06-20T16:48:40.171Z,1.63
2018-06-20T16:51:08.990Z,1.60
2018-06-20T16:53:38.036Z,1.40
2018-06-20T16:56:06.651Z,1.80
2018-06-20T16:58:35.316Z,2.40
2018-06-20T17:01:08.953Z,1.80
2018-06-20T17:03:37.673Z,1.50
2018-06-20T17:06:06.556Z,1.43
2018-06-20T17:08:35.395Z,2.20
2018-06-20T17:11:04.151Z,1.83
2018-06-20T17:13:37.994Z,2.57
2018-06-20T17:16:11.659Z,1.43
2018-06-20T17:18:45.408Z,1.97
2018-06-20T17:21:19.313Z,2.37
2018-06-20T17:23:53.140Z,2.20
2018-06-20T17:26:27.769Z,2.10
2018-06-20T17:28:56.459Z,2.50
2018-06-20T17:31:25.051Z,2.40
2018-06-20T17:36:28.451Z,2.10
2018-06-20T17:38:56.948Z,2.10
2018-06-20T17:41:25.818Z,1.97
2018-06-20T17:43:54.300Z,3.07
2018-06-20T17:46:22.869Z,3.93
2018-06-20T17:48:51.818Z,2.97
2018-06-20T17:51:20.379Z,2.80
2018-06-20T17:53:48.936Z,2.50
2018-06-20T17:56:17.889Z,2.93
2018-06-20T17:58:46.469Z,3.97
2018-06-20T18:01:15.057Z,4.20
2018-06-20T18:03:43.614Z,2.20
2018-06-20T18:06:17.241Z,2.37
2018-06-20T18:08:51.012Z,2.57
2018-06-20T18:11:24.696Z,2.27
2018-06-20T18:13:58.382Z,2.37
2018-06-20T18:16:32.075Z,2.97
2018-06-20T18:19:00.525Z,3.57
2018-06-20T18:21:29.044Z,2.87
2018-06-20T18:23:57.867Z,2.93
2018-06-20T18:26:26.439Z,3.20
2018-06-20T18:28:54.974Z,2.30
2018-06-20T18:31:23.526Z,2.70
2018-06-20T18:33:52.590Z,2.67
2018-06-20T18:36:21.387Z,3.53
2018-06-20T18:38:50.016Z,2.80
2018-06-20T18:41:18.599Z,3.27
2018-06-20T18:43:47.216Z,4.53
2018-06-20T18:46:15.729Z,3.63
2018-06-20T18:48:44.274Z,2.70
2018-06-20T18:51:13.109Z,3.33
2018-06-20T18:53:41.780Z,3.03
2018-06-20T18:56:10.475Z,2.50
2018-06-20T18:58:44.392Z,2.47
2018-06-20T19:01:18.234Z,3.63
2018-06-20T19:05:53.113Z,2.87
2018-06-20T19:08:26.980Z,3.00
2018-06-20T19:10:55.454Z,3.17
2018-06-20T19:13:24.046Z,2.80
2018-06-20T19:15:52.558Z,2.50
2018-06-20T19:18:21.089Z,3.17
2018-06-20T19:20:49.762Z,3.07
2018-06-20T19:23:18.854Z,2.73
2018-06-20T19:25:47.664Z,2.80
2018-06-20T19:28:16.254Z,3.20
2018-06-20T19:30:45.059Z,3.47
2018-06-20T19:33:13.732Z,3.47
2018-06-20T19:35:42.443Z,3.90
2018-06-20T19:38:11.072Z,3.67
2018-06-20T19:40:39.638Z,4.73
2018-06-20T19:43:08.279Z,3.83
2018-06-20T19:45:37.013Z,3.43
2018-06-20T19:48:05.542Z,3.20
2018-06-20T19:50:34.271Z,3.30
2018-06-20T19:53:02.864Z,3.30
2018-06-20T19:55:31.450Z,3.10
2018-06-20T19:58:00.050Z,3.27
2018-06-20T20:00:28.802Z,3.23
2018-06-20T20:02:57.478Z,3.43
2018-06-20T20:05:29.563Z,3.10
2018-06-20T20:08:05.577Z,3.20
2018-06-20T20:10:34.300Z,3.13
2018-06-20T20:13:03.003Z,3.03
2018-06-20T20:15:31.832Z,3.40
2018-06-20T20:18:00.541Z,3.63
2018-06-20T20:20:29.235Z,3.43
2018-06-20T20:22:57.862Z,3.23
2018-06-20T20:25:26.420Z,3.17
2018-06-20T20:27:55.011Z,4.37
2018-06-20T20:30:23.582Z,4.00
2018-06-20T20:32:52.364Z,3.43
2018-06-20T20:35:21.508Z,3.20
2018-06-20T20:37:50.192Z,3.60
2018-06-20T20:40:18.885Z,3.33
2018-06-20T20:42:47.587Z,3.50
2018-06-20T20:45:16.215Z,3.10
2018-06-20T20:47:44.845Z,3.93
2018-06-20T20:50:13.383Z,4.00
2018-06-20T20:52:41.970Z,3.73
2018-06-20T20:55:10.624Z,3.77
2018-06-20T20:57:39.536Z,3.67
2018-06-20T21:00:08.378Z,3.80
2018-06-20T21:02:37.119Z,3.87
2018-06-20T21:05:05.865Z,3.33
2018-06-20T21:07:34.642Z,3.80
2018-06-20T21:10:03.198Z,3.30
2018-06-20T21:12:32.079Z,3.90
2018-06-20T21:15:00.795Z,3.40
2018-06-20T21:17:29.440Z,3.47
2018-06-20T21:19:58.191Z,3.20
2018-06-20T21:22:26.958Z,3.93
2018-06-20T21:24:55.705Z,3.70
2018-06-20T21:27:24.287Z,3.43
2018-06-20T21:29:53.139Z,3.80
2018-06-20T21:32:21.893Z,3.27
2018-06-20T21:34:51.108Z,3.70
2018-06-20T21:37:19.913Z,3.07
2018-06-20T21:39:48.521Z,3.77
2018-06-20T21:42:17.276Z,3.63
2018-06-20T21:44:45.916Z,3.60
2018-06-20T21:47:14.479Z,3.40
2018-06-20T21:49:43.039Z,3.67
2018-06-20T21:52:11.639Z,3.70
2018-06-20T21:54:40.221Z,3.40
2018-06-20T21:57:08.818Z,3.50
2018-06-20T21:59:37.377Z,3.63
2018-06-20T22:02:05.980Z,4.23
2018-06-20T22:04:34.550Z,3.97
2018-06-20T22:07:03.095Z,3.47
2018-06-20T22:09:31.633Z,4.00
2018-06-20T22:12:00.232Z,3.50
2018-06-20T22:14:28.828Z,3.77
2018-06-20T22:16:57.335Z,4.10
2018-06-20T22:19:25.960Z,4.20
2018-06-20T22:21:54.518Z,3.70
2018-06-20T22:24:23.040Z,3.30
2018-06-20T22:26:51.800Z,3.57
2018-06-20T22:29:20.260Z,3.80
2018-06-20T22:31:48.781Z,3.57
2018-06-20T22:34:17.287Z,3.93
2018-06-20T22:36:45.839Z,3.97
2018-06-20T22:39:14.304Z,4.20
2018-06-20T22:41:42.862Z,4.20
2018-06-20T22:44:11.316Z,4.23
2018-06-20T22:46:39.786Z,3.97
2018-06-20T22:49:08.509Z,4.53
2018-06-20T22:51:37.132Z,4.00
2018-06-20T22:54:05.644Z,4.03
2018-06-20T22:56:34.038Z,4.40
2018-06-20T22:59:02.509Z,4.17
2018-06-20T23:01:31.036Z,4.53
2018-06-20T23:03:59.538Z,4.30
2018-06-20T23:06:28.054Z,4.00
2018-06-20T23:08:56.557Z,4.03
2018-06-20T23:11:25.104Z,3.80
2018-06-20T23:13:53.627Z,4.30
2018-06-20T23:16:22.112Z,4.33
2018-06-20T23:18:50.626Z,4.37
2018-06-20T23:21:19.149Z,4.77
2018-06-20T23:23:47.644Z,4.77
2018-06-20T23:26:16.068Z,4.73
2018-06-20T23:28:44.662Z,4.60
2018-06-20T23:31:13.131Z,4.47
2018-06-20T23:33:41.704Z,4.43
2018-06-20T23:36:10.157Z,4.43
2018-06-20T23:38:38.645Z,4.27
2018-06-20T23:41:07.096Z,4.30
2018-06-20T23:43:35.642Z,4.70
2018-06-20T23:46:04.061Z,4.90
2018-06-20T23:48:34.495Z,4.80
2018-06-20T23:51:02.960Z,4.67
2018-06-20T23:53:31.517Z,4.77
2018-06-20T23:55:59.977Z,5.10
2018-06-20T23:58:29.386Z,4.77
